createdAt,value
2019-02-11T00:02:23.803Z,32.57
2019-02-11T00:04:57.369Z,23.90
2019-02-11T00:07:30.944Z,26.00
2019-02-11T00:10:05.068Z,24.80
2019-02-11T00:12:38.427Z,26.90
2019-02-11T00:15:11.893Z,28.00
2019-02-11T00:17:45.384Z,23.70
2019-02-11T00:20:18.862Z,28.07
2019-02-11T00:22:52.415Z,26.13
2019-02-11T00:25:25.896Z,25.07
2019-02-11T00:27:59.361Z,21.07
2019-02-11T00:30:34.282Z,25.30
2019-02-11T00:33:08.113Z,23.97
2019-02-11T00:35:41.667Z,23.50
2019-02-11T00:38:15.199Z,23.83
2019-02-11T00:40:48.736Z,18.87
2019-02-11T00:43:22.245Z,24.97
2019-02-11T00:45:55.771Z,18.47
2019-02-11T00:48:29.279Z,21.53
2019-02-11T00:51:02.803Z,25.20
2019-02-11T00:53:36.294Z,19.37
2019-02-11T00:56:09.805Z,12.57
2019-02-11T00:58:43.272Z,25.00
2019-02-11T01:01:16.732Z,25.67
2019-02-11T01:03:50.145Z,18.37
2019-02-11T01:06:23.707Z,26.17
2019-02-11T01:08:57.139Z,19.87
2019-02-11T01:11:30.678Z,25.43
2019-02-11T01:14:04.166Z,21.43
2019-02-11T01:16:37.574Z,20.53
2019-02-11T01:19:11.037Z,21.30
2019-02-11T01:21:44.491Z,24.03
2019-02-11T01:24:17.951Z,15.43
2019-02-11T01:26:51.395Z,26.63
2019-02-11T01:29:24.821Z,19.23
2019-02-11T01:31:58.343Z,19.17
2019-02-11T01:34:31.778Z,20.03
2019-02-11T01:37:05.213Z,23.43
2019-02-11T01:39:38.688Z,22.73
2019-02-11T01:42:12.089Z,19.77
2019-02-11T01:44:45.502Z,19.17
2019-02-11T01:47:19.024Z,17.27
2019-02-11T01:49:52.474Z,17.53
2019-02-11T01:52:25.869Z,15.10
2019-02-11T01:54:59.312Z,21.00
2019-02-11T01:57:32.819Z,15.10
2019-02-11T02:00:13.993Z,21.60
2019-02-11T02:02:47.449Z,18.00
2019-02-11T02:05:20.896Z,14.33
2019-02-11T02:07:54.425Z,13.30
2019-02-11T02:10:27.914Z,17.33
2019-02-11T02:13:01.381Z,17.47
2019-02-11T02:15:34.903Z,14.90
2019-02-11T02:18:08.338Z,15.37
2019-02-11T02:20:41.800Z,14.03
2019-02-11T02:23:15.349Z,20.07
2019-02-11T02:25:48.876Z,18.70
2019-02-11T02:28:22.215Z,20.83
2019-02-11T02:30:55.681Z,22.00
2019-02-11T02:33:29.109Z,14.87
2019-02-11T02:36:02.726Z,24.27
2019-02-11T02:38:36.086Z,21.50
2019-02-11T02:41:09.528Z,18.40
2019-02-11T02:43:42.983Z,20.53
2019-02-11T02:46:16.672Z,21.80
2019-02-11T02:48:50.025Z,25.47
2019-02-11T02:51:23.476Z,23.50
2019-02-11T02:53:56.888Z,18.60
2019-02-11T02:56:30.355Z,14.83
2019-02-11T02:59:03.869Z,16.13
2019-02-11T03:01:37.450Z,22.67
2019-02-11T03:04:11.054Z,25.30
2019-02-11T03:06:44.616Z,17.77
2019-02-11T03:09:18.224Z,23.63
2019-02-11T03:11:51.839Z,21.07
2019-02-11T03:14:25.386Z,15.57
2019-02-11T03:16:58.900Z,20.60
2019-02-11T03:19:32.435Z,21.93
2019-02-11T03:22:05.849Z,19.57
2019-02-11T03:24:39.466Z,14.67
2019-02-11T03:27:12.984Z,19.83
2019-02-11T03:29:47.159Z,15.00
2019-02-11T03:32:20.714Z,17.80
2019-02-11T03:34:54.390Z,16.80
2019-02-11T03:37:27.766Z,16.17
2019-02-11T03:40:01.254Z,17.23
2019-02-11T03:42:34.811Z,20.37
2019-02-11T03:45:13.450Z,10.80
2019-02-11T03:47:46.927Z,18.60
2019-02-11T03:50:20.526Z,20.50
2019-02-11T03:52:54.040Z,17.87
2019-02-11T03:55:27.678Z,19.87
2019-02-11T03:58:01.194Z,17.23
2019-02-11T04:00:34.708Z,18.10
2019-02-11T04:03:08.261Z,13.37
2019-02-11T04:05:41.807Z,16.40
2019-02-11T04:08:15.357Z,12.67
2019-02-11T04:10:48.814Z,13.47
2019-02-11T04:13:22.350Z,25.80
2019-02-11T04:15:55.908Z,14.43
2019-02-11T04:18:29.297Z,16.90
2019-02-11T04:21:02.887Z,14.77
2019-02-11T04:23:36.407Z,15.20
2019-02-11T04:26:09.928Z,15.17
2019-02-11T04:28:43.591Z,14.60
2019-02-11T04:31:17.020Z,17.23
2019-02-11T04:33:50.480Z,13.53
2019-02-11T04:36:23.836Z,20.40
2019-02-11T04:38:57.542Z,16.53
2019-02-11T04:41:31.169Z,18.67
2019-02-11T04:44:04.883Z,17.27
2019-02-11T04:46:38.399Z,16.67
2019-02-11T04:49:12.024Z,16.70
2019-02-11T04:51:45.559Z,14.67
2019-02-11T04:54:19.123Z,11.87
2019-02-11T04:56:53.998Z,18.93
2019-02-11T04:59:27.500Z,12.83
2019-02-11T05:02:01.008Z,10.60
2019-02-11T05:04:34.596Z,13.43
2019-02-11T05:07:08.109Z,18.13
2019-02-11T05:09:41.587Z,13.70
2019-02-11T05:12:15.272Z,15.90
2019-02-11T05:14:48.797Z,17.47
2019-02-11T05:17:22.368Z,15.00
2019-02-11T05:19:55.861Z,18.20
2019-02-11T05:22:29.399Z,17.50
2019-02-11T05:25:03.015Z,16.13
2019-02-11T05:27:36.502Z,19.47
2019-02-11T05:30:13.310Z,14.60
2019-02-11T05:32:46.780Z,11.13
2019-02-11T05:35:20.412Z,16.77
2019-02-11T05:37:53.930Z,15.67
2019-02-11T05:40:27.437Z,13.13
2019-02-11T05:43:01.003Z,9.27
2019-02-11T05:45:34.554Z,9.70
2019-02-11T05:48:08.061Z,16.37
2019-02-11T05:50:41.675Z,13.03
2019-02-11T05:53:15.203Z,9.67
2019-02-11T05:55:48.836Z,13.93
2019-02-11T05:58:22.267Z,9.53
2019-02-11T06:00:55.857Z,11.30
2019-02-11T06:03:29.311Z,11.70
2019-02-11T06:06:02.948Z,12.73
2019-02-11T06:08:37.263Z,14.17
2019-02-11T06:11:10.818Z,13.57
2019-02-11T06:13:44.370Z,12.97
2019-02-11T06:16:17.887Z,13.50
2019-02-11T06:18:51.435Z,14.27
2019-02-11T06:21:25.003Z,13.17
2019-02-11T06:23:58.558Z,14.30
2019-02-11T06:26:32.130Z,8.20
2019-02-11T06:29:05.714Z,11.17
2019-02-11T06:31:39.184Z,13.47
2019-02-11T06:34:12.929Z,9.73
2019-02-11T06:36:46.278Z,8.73
2019-02-11T06:39:19.829Z,13.20
2019-02-11T06:41:53.481Z,9.70
2019-02-11T06:44:27.008Z,8.70
2019-02-11T06:47:00.627Z,9.53
2019-02-11T06:49:34.209Z,11.00
2019-02-11T06:52:07.702Z,9.53
2019-02-11T06:54:41.255Z,12.00
2019-02-11T06:57:14.688Z,10.73
2019-02-11T06:59:48.168Z,14.50
2019-02-11T07:02:23.697Z,9.53
2019-02-11T07:04:57.133Z,17.20
2019-02-11T07:07:30.623Z,11.43
2019-02-11T07:10:06.260Z,9.40
2019-02-11T07:12:39.755Z,14.53
2019-02-11T07:15:21.479Z,16.23
2019-02-11T07:17:49.928Z,14.23
2019-02-11T07:20:23.545Z,18.63
2019-02-11T07:22:56.981Z,15.20
2019-02-11T07:25:30.441Z,20.87
2019-02-11T07:28:04.030Z,16.27
2019-02-11T07:30:37.643Z,13.90
2019-02-11T07:33:11.217Z,12.50
2019-02-11T07:35:44.874Z,15.87
2019-02-11T07:38:18.369Z,17.00
2019-02-11T07:40:51.970Z,16.33
2019-02-11T07:43:27.061Z,17.60
2019-02-11T07:46:02.358Z,14.23
2019-02-11T07:48:35.785Z,17.43
2019-02-11T07:51:09.333Z,17.23
2019-02-11T07:53:42.828Z,20.97
2019-02-11T07:56:16.418Z,16.73
2019-02-11T07:58:49.860Z,10.77
2019-02-11T08:01:23.339Z,19.80
2019-02-11T08:03:56.858Z,18.20
2019-02-11T08:06:30.447Z,17.03
2019-02-11T08:09:06.481Z,16.47
2019-02-11T08:11:40.011Z,19.20
2019-02-11T08:14:13.464Z,18.93
2019-02-11T08:16:46.993Z,19.50
2019-02-11T08:19:20.484Z,16.20
2019-02-11T08:21:54.036Z,14.17
2019-02-11T08:24:27.550Z,19.07
2019-02-11T08:27:01.039Z,17.90
2019-02-11T08:29:34.593Z,17.40
2019-02-11T08:32:08.122Z,21.83
2019-02-11T08:34:41.584Z,18.83
2019-02-11T08:37:15.087Z,17.93
2019-02-11T08:39:48.717Z,23.67
2019-02-11T08:42:22.164Z,14.10
2019-02-11T08:44:55.619Z,21.07
2019-02-11T08:47:29.261Z,20.00
2019-02-11T08:50:02.939Z,21.53
2019-02-11T08:52:36.510Z,16.13
2019-02-11T08:55:10.163Z,13.90
2019-02-11T08:57:43.515Z,18.10
2019-02-11T09:00:17.082Z,17.03
2019-02-11T09:02:50.651Z,18.50
2019-02-11T09:05:24.144Z,18.40
2019-02-11T09:07:57.591Z,17.23
2019-02-11T09:10:31.048Z,22.63
2019-02-11T09:13:04.631Z,22.70
2019-02-11T09:15:38.170Z,17.23
2019-02-11T09:18:11.669Z,24.43
2019-02-11T09:20:45.143Z,14.57
2019-02-11T09:23:18.711Z,16.67
2019-02-11T09:25:52.245Z,19.30
2019-02-11T09:28:25.690Z,17.33
2019-02-11T09:30:59.289Z,15.30
2019-02-11T09:33:32.844Z,20.33
2019-02-11T09:36:06.390Z,20.23
2019-02-11T09:38:40.019Z,16.43
2019-02-11T09:41:14.757Z,15.43
2019-02-11T09:43:48.183Z,17.47
2019-02-11T09:46:21.838Z,21.93
2019-02-11T09:48:55.367Z,20.40
2019-02-11T09:51:29.029Z,16.90
2019-02-11T09:54:02.818Z,20.00
2019-02-11T09:56:36.287Z,16.97
2019-02-11T09:59:09.805Z,27.33
2019-02-11T10:01:43.358Z,24.43
2019-02-11T10:04:16.813Z,17.67
2019-02-11T10:06:50.383Z,16.50
2019-02-11T10:09:24.086Z,17.80
2019-02-11T10:11:57.692Z,20.07
2019-02-11T10:14:31.189Z,19.53
2019-02-11T10:17:04.888Z,25.60
2019-02-11T10:19:38.412Z,20.60
2019-02-11T10:22:12.023Z,17.80
2019-02-11T10:24:45.741Z,23.03
2019-02-11T10:27:19.383Z,21.70
2019-02-11T10:29:52.930Z,19.20
2019-02-11T10:32:26.552Z,14.90
2019-02-11T10:35:00.240Z,23.03
2019-02-11T10:37:33.802Z,22.43
2019-02-11T10:40:10.084Z,19.27
2019-02-11T10:42:43.651Z,15.07
2019-02-11T10:45:17.250Z,18.90
2019-02-11T10:47:50.708Z,15.83
2019-02-11T10:50:24.266Z,18.23
2019-02-11T10:52:57.754Z,20.00
2019-02-11T10:55:31.276Z,17.20
2019-02-11T10:58:05.342Z,15.40
2019-02-11T11:00:39.196Z,17.60
2019-02-11T11:03:12.775Z,16.07
2019-02-11T11:05:46.317Z,17.27
2019-02-11T11:08:19.860Z,14.60
2019-02-11T11:10:53.499Z,12.50
2019-02-11T11:13:26.982Z,15.33
2019-02-11T11:16:01.027Z,16.53
2019-02-11T11:18:34.525Z,17.07
2019-02-11T11:21:09.207Z,17.03
2019-02-11T11:23:42.649Z,17.63
2019-02-11T11:26:16.176Z,16.90
2019-02-11T11:28:49.672Z,16.90
2019-02-11T11:31:23.232Z,14.43
2019-02-11T11:33:56.807Z,13.73
2019-02-11T11:36:30.581Z,15.87
2019-02-11T11:39:06.504Z,11.53
2019-02-11T11:41:40.163Z,12.87
2019-02-11T11:44:13.588Z,12.43
2019-02-11T11:46:47.430Z,12.53
2019-02-11T11:49:21.139Z,15.57
2019-02-11T11:51:54.706Z,19.83
2019-02-11T11:54:28.165Z,17.10
2019-02-11T11:57:01.790Z,18.27
2019-02-11T11:59:35.375Z,14.00
2019-02-11T12:02:08.913Z,15.60
2019-02-11T12:04:42.429Z,13.77
2019-02-11T12:07:16.068Z,14.00
2019-02-11T12:09:49.658Z,18.30
2019-02-11T12:12:23.125Z,17.33
2019-02-11T12:14:56.595Z,15.93
2019-02-11T12:17:30.252Z,17.87
2019-02-11T12:20:03.935Z,13.97
2019-02-11T12:22:37.532Z,16.27
2019-02-11T12:25:13.616Z,16.47
2019-02-11T12:27:47.117Z,16.87
2019-02-11T12:30:25.550Z,16.10
2019-02-11T12:32:59.177Z,12.40
2019-02-11T12:35:32.657Z,12.80
2019-02-11T12:38:06.104Z,16.00
2019-02-11T12:40:39.544Z,15.23
2019-02-11T12:43:13.008Z,14.83
2019-02-11T12:45:46.657Z,10.43
2019-02-11T12:48:20.179Z,15.83
2019-02-11T12:50:53.752Z,11.13
2019-02-11T12:53:27.197Z,9.90
2019-02-11T12:56:02.401Z,12.07
2019-02-11T12:58:35.994Z,12.87
2019-02-11T13:01:09.481Z,9.47
2019-02-11T13:03:43.173Z,11.07
2019-02-11T13:06:16.637Z,14.77
2019-02-11T13:08:50.149Z,11.77
2019-02-11T13:11:23.690Z,11.80
2019-02-11T13:13:57.310Z,12.63
2019-02-11T13:16:30.847Z,13.90
2019-02-11T13:19:04.386Z,13.20
2019-02-11T13:21:37.989Z,14.90
2019-02-11T13:24:11.450Z,13.60
2019-02-11T13:26:44.994Z,11.60
2019-02-11T13:29:18.591Z,13.27
2019-02-11T13:31:52.086Z,15.33
2019-02-11T13:34:25.834Z,11.17
2019-02-11T13:36:59.372Z,14.27
2019-02-11T13:39:32.830Z,11.10
2019-02-11T13:42:06.420Z,15.80
2019-02-11T13:44:39.786Z,13.27
2019-02-11T13:47:13.243Z,14.50
2019-02-11T13:49:47.060Z,13.83
2019-02-11T13:52:20.776Z,13.67
2019-02-11T13:54:54.302Z,13.57
2019-02-11T13:57:27.819Z,14.43
2019-02-11T14:00:01.273Z,11.90
2019-02-11T14:02:35.435Z,14.13
2019-02-11T14:05:09.057Z,12.67
2019-02-11T14:07:42.729Z,17.23
2019-02-11T14:10:16.333Z,9.40
2019-02-11T14:12:50.268Z,9.87
2019-02-11T14:15:23.773Z,10.20
2019-02-11T14:18:13.091Z,9.63
2019-02-11T14:20:44.308Z,14.27
2019-02-11T14:23:18.002Z,12.67
2019-02-11T14:25:51.610Z,12.67
2019-02-11T14:28:25.186Z,13.23
2019-02-11T14:30:58.605Z,8.60
2019-02-11T14:33:32.199Z,8.00
2019-02-11T14:36:05.871Z,13.30
2019-02-11T14:38:39.404Z,12.77
2019-02-11T14:41:12.937Z,13.87
2019-02-11T14:43:46.425Z,10.53
2019-02-11T14:46:19.965Z,14.00
2019-02-11T14:48:53.498Z,13.57
2019-02-11T14:51:27.053Z,13.70
2019-02-11T14:54:00.557Z,14.17
2019-02-11T14:56:34.031Z,13.40
2019-02-11T14:59:07.677Z,14.57
2019-02-11T15:01:41.151Z,10.63
2019-02-11T15:04:14.585Z,15.80
2019-02-11T15:06:48.068Z,14.30
2019-02-11T15:09:21.584Z,13.07
2019-02-11T15:11:57.310Z,11.97
2019-02-11T15:14:30.741Z,12.67
2019-02-11T15:17:04.275Z,11.87
2019-02-11T15:19:37.735Z,12.17
2019-02-11T15:22:11.289Z,13.00
2019-02-11T15:24:44.778Z,10.83
2019-02-11T15:27:18.321Z,8.97
2019-02-11T15:29:51.942Z,15.03
2019-02-11T15:32:25.432Z,9.53
2019-02-11T15:34:59.043Z,12.27
2019-02-11T15:37:32.521Z,13.50
2019-02-11T15:40:09.043Z,9.27
2019-02-11T15:42:42.592Z,11.93
2019-02-11T15:45:16.169Z,14.43
2019-02-11T15:47:49.624Z,16.03
2019-02-11T15:50:23.144Z,15.10
2019-02-11T15:52:56.973Z,17.57
2019-02-11T15:55:30.595Z,16.93
2019-02-11T15:58:04.229Z,14.03
2019-02-11T16:00:37.795Z,13.93
2019-02-11T16:03:11.248Z,16.13
2019-02-11T16:05:49.627Z,15.50
2019-02-11T16:08:20.114Z,15.80
2019-02-11T16:11:01.227Z,17.67
2019-02-11T16:13:28.976Z,17.77
2019-02-11T16:16:02.560Z,14.43
2019-02-11T16:18:36.421Z,18.40
2019-02-11T16:21:10.105Z,22.97
2019-02-11T16:23:43.748Z,22.37
2019-02-11T16:26:17.486Z,21.67
2019-02-11T16:28:51.239Z,22.13
2019-02-11T16:31:24.842Z,20.47
2019-02-11T16:33:58.212Z,19.43
2019-02-11T16:36:31.810Z,18.63
2019-02-11T16:39:06.015Z,18.83
2019-02-11T16:41:39.751Z,19.43
2019-02-11T16:44:13.232Z,16.63
2019-02-11T16:46:46.630Z,17.77
2019-02-11T16:49:20.073Z,17.90
2019-02-11T16:51:53.577Z,27.10
2019-02-11T16:54:26.959Z,20.27
2019-02-11T16:57:00.431Z,21.83
2019-02-11T16:59:33.890Z,21.50
2019-02-11T17:02:07.369Z,15.73
2019-02-11T17:04:40.857Z,14.33
2019-02-11T17:07:14.439Z,19.13
2019-02-11T17:09:47.941Z,16.43
2019-02-11T17:12:21.544Z,15.93
2019-02-11T17:14:54.967Z,15.17
2019-02-11T17:17:28.458Z,18.70
2019-02-11T17:20:01.896Z,17.47
2019-02-11T17:22:35.450Z,17.93
2019-02-11T17:25:10.479Z,17.57
2019-02-11T17:27:44.021Z,13.77
2019-02-11T17:30:23.400Z,15.37
2019-02-11T17:32:56.864Z,19.53
2019-02-11T17:35:30.793Z,12.87
2019-02-11T17:38:05.020Z,21.10
2019-02-11T17:40:38.517Z,14.50
2019-02-11T17:43:12.144Z,22.20
2019-02-11T17:45:45.859Z,17.33
2019-02-11T17:48:20.394Z,12.80
2019-02-11T17:50:54.215Z,17.13
2019-02-11T17:53:27.695Z,14.33
2019-02-11T17:56:01.265Z,14.40
2019-02-11T17:58:34.886Z,14.37
2019-02-11T18:01:08.583Z,13.70
2019-02-11T18:03:42.227Z,13.10
2019-02-11T18:06:15.888Z,11.90
2019-02-11T18:08:49.358Z,12.93
2019-02-11T18:11:23.091Z,14.03
2019-02-11T18:13:56.544Z,9.50
2019-02-11T18:16:30.156Z,10.60
2019-02-11T18:19:04.219Z,14.87
2019-02-11T18:21:37.686Z,13.10
2019-02-11T18:24:11.221Z,13.30
2019-02-11T18:26:44.820Z,14.27
2019-02-11T18:29:18.468Z,13.70
2019-02-11T18:31:52.053Z,12.90
2019-02-11T18:34:25.600Z,9.63
2019-02-11T18:36:59.088Z,9.97
2019-02-11T18:39:32.689Z,13.47
2019-02-11T18:42:06.195Z,13.77
2019-02-11T18:44:39.717Z,13.50
2019-02-11T18:47:13.321Z,16.60
2019-02-11T18:49:46.928Z,9.20
2019-02-11T18:52:20.516Z,9.40
2019-02-11T18:54:54.023Z,15.37
2019-02-11T18:57:27.566Z,12.60
2019-02-11T19:00:10.842Z,23.57
2019-02-11T19:02:44.373Z,15.13
2019-02-11T19:05:18.254Z,17.43
2019-02-11T19:07:52.046Z,14.47
2019-02-11T19:10:25.485Z,11.87
2019-02-11T19:12:59.117Z,14.40
2019-02-11T19:15:32.850Z,14.93
2019-02-11T19:18:06.377Z,21.17
2019-02-11T19:20:39.776Z,15.80
2019-02-11T19:23:13.454Z,17.93
2019-02-11T19:25:47.091Z,17.43
2019-02-11T19:28:20.746Z,14.97
2019-02-11T19:30:54.421Z,15.70
2019-02-11T19:33:28.030Z,15.17
2019-02-11T19:36:01.652Z,16.33
2019-02-11T19:38:35.186Z,13.47
2019-02-11T19:41:08.796Z,10.40
2019-02-11T19:43:42.342Z,16.10
2019-02-11T19:46:15.873Z,15.70
2019-02-11T19:48:49.431Z,15.83
2019-02-11T19:51:22.950Z,15.30
2019-02-11T19:53:56.533Z,15.83
2019-02-11T19:56:30.540Z,13.93
2019-02-11T19:59:04.172Z,15.40
2019-02-11T20:01:37.607Z,13.57
2019-02-11T20:04:11.124Z,11.70
2019-02-11T20:06:44.637Z,14.63
2019-02-11T20:09:18.092Z,17.07
2019-02-11T20:11:51.544Z,13.30
2019-02-11T20:14:25.135Z,13.00
2019-02-11T20:16:58.790Z,13.23
2019-02-11T20:19:32.185Z,13.10
2019-02-11T20:22:05.770Z,13.80
2019-02-11T20:24:39.269Z,11.40
2019-02-11T20:27:12.829Z,9.57
2019-02-11T20:29:46.315Z,10.77
2019-02-11T20:32:19.872Z,15.20
2019-02-11T20:34:53.354Z,8.13
2019-02-11T20:37:26.926Z,9.30
2019-02-11T20:40:03.429Z,10.80
2019-02-11T20:42:35.639Z,12.77
2019-02-11T20:45:12.207Z,16.20
2019-02-11T20:47:45.866Z,15.03
2019-02-11T20:50:19.382Z,8.73
2019-02-11T20:52:52.844Z,12.17
2019-02-11T20:55:26.300Z,10.57
2019-02-11T20:58:00.835Z,16.57
2019-02-11T21:00:34.278Z,9.33
2019-02-11T21:03:08.644Z,15.57
2019-02-11T21:05:42.229Z,11.60
2019-02-11T21:08:15.881Z,14.27
2019-02-11T21:10:49.372Z,9.27
2019-02-11T21:13:23.016Z,11.97
2019-02-11T21:15:56.762Z,13.03
2019-02-11T21:18:30.301Z,8.57
2019-02-11T21:21:03.802Z,12.30
2019-02-11T21:23:38.171Z,15.40
2019-02-11T21:26:11.631Z,15.53
2019-02-11T21:28:45.161Z,13.37
2019-02-11T21:31:18.785Z,10.77
2019-02-11T21:33:52.310Z,10.60
2019-02-11T21:36:25.754Z,15.97
2019-02-11T21:38:59.246Z,15.23
2019-02-11T21:41:32.685Z,14.73
2019-02-11T21:44:06.323Z,16.17
2019-02-11T21:46:39.990Z,11.10
2019-02-11T21:49:13.574Z,12.17
2019-02-11T21:51:47.135Z,8.23
2019-02-11T21:54:20.723Z,9.03
2019-02-11T21:56:54.147Z,11.50
2019-02-11T21:59:27.748Z,11.63
2019-02-11T22:02:01.235Z,11.23
2019-02-11T22:04:34.762Z,8.77
2019-02-11T22:07:08.277Z,11.53
2019-02-11T22:09:41.783Z,7.87
2019-02-11T22:12:15.314Z,9.03
2019-02-11T22:14:48.950Z,9.60
2019-02-11T22:17:22.460Z,8.67
2019-02-11T22:19:55.927Z,9.33
2019-02-11T22:22:29.459Z,8.77
2019-02-11T22:25:03.308Z,9.43
2019-02-11T22:27:36.815Z,7.83
2019-02-11T22:30:16.590Z,9.70
2019-02-11T22:32:50.101Z,8.80
2019-02-11T22:35:23.591Z,11.30
2019-02-11T22:37:57.130Z,9.33
2019-02-11T22:40:30.528Z,9.53
2019-02-11T22:43:04.056Z,12.07
2019-02-11T22:45:37.675Z,7.37
2019-02-11T22:48:11.035Z,8.73
2019-02-11T22:50:44.560Z,11.33
2019-02-11T22:53:18.234Z,10.70
2019-02-11T22:55:51.711Z,7.47
2019-02-11T22:58:25.164Z,7.23
2019-02-11T23:01:00.280Z,7.57
2019-02-11T23:03:34.635Z,10.50
2019-02-11T23:06:08.211Z,12.17
2019-02-11T23:08:41.677Z,9.00
2019-02-11T23:11:15.097Z,8.13
2019-02-11T23:13:48.734Z,8.00
2019-02-11T23:16:22.155Z,8.93
2019-02-11T23:18:55.681Z,10.47
2019-02-11T23:21:29.134Z,11.03
2019-02-11T23:24:02.703Z,7.87
2019-02-11T23:26:36.203Z,9.13
2019-02-11T23:29:09.837Z,15.33
2019-02-11T23:31:43.372Z,6.67
2019-02-11T23:34:16.862Z,9.57
2019-02-11T23:36:50.335Z,8.83
2019-02-11T23:39:23.965Z,9.00
2019-02-11T23:41:57.537Z,10.10
2019-02-11T23:44:31.169Z,12.23
2019-02-11T23:47:04.626Z,10.97
2019-02-11T23:49:38.116Z,8.13
2019-02-11T23:52:11.714Z,12.00
2019-02-11T23:54:45.208Z,7.93
2019-02-11T23:57:18.832Z,8.70
2019-02-11T23:59:52.526Z,6.63
